createdAt,value
2022-12-11T00:02:03.378Z,95175.84
2022-12-11T00:04:31.455Z,95176.19
2022-12-11T00:06:59.346Z,95172.81
2022-12-11T00:09:27.354Z,95172.75
2022-12-11T00:11:55.361Z,95165.34
2022-12-11T00:14:23.260Z,95173.84
2022-12-11T00:16:51.232Z,95172.47
2022-12-11T00:19:20.556Z,95169.16
2022-12-11T00:21:48.444Z,95167.03
2022-12-11T00:24:16.771Z,95164.03
2022-12-11T00:26:44.640Z,95160.53
2022-12-11T00:29:14.668Z,95159.31
2022-12-11T00:31:43.000Z,95152.25
2022-12-11T00:34:12.069Z,95152.50
2022-12-11T00:36:41.366Z,95146.59
2022-12-11T00:39:09.251Z,95143.06
2022-12-11T00:41:37.168Z,95148.50
2022-12-11T00:44:05.692Z,95154.88
2022-12-11T00:46:33.619Z,95158.63
2022-12-11T00:49:01.500Z,95153.25
2022-12-11T00:51:29.436Z,95142.09
2022-12-11T00:53:58.685Z,95146.25
2022-12-11T00:56:26.637Z,95152.38
2022-12-11T00:58:54.552Z,95153.78
2022-12-11T01:01:24.124Z,95155.69
2022-12-11T01:03:52.789Z,95153.25
2022-12-11T01:06:24.722Z,95159.94
2022-12-11T01:09:14.647Z,95162.34
2022-12-11T01:11:43.288Z,95161.28
2022-12-11T01:14:11.743Z,95166.25
2022-12-11T01:16:39.742Z,95167.50
2022-12-11T01:19:07.684Z,95168.81
2022-12-11T01:21:35.599Z,95171.78
2022-12-11T01:24:03.528Z,95172.75
2022-12-11T01:26:31.438Z,95171.13
2022-12-11T01:29:01.404Z,95175.44
2022-12-11T01:31:29.496Z,95181.56
2022-12-11T01:33:57.765Z,95181.63
2022-12-11T01:36:25.771Z,95183.19
2022-12-11T01:38:54.519Z,95192.66
2022-12-11T01:41:22.527Z,95182.91
2022-12-11T01:44:03.962Z,95184.47
2022-12-11T01:46:33.898Z,95195.38
2022-12-11T01:49:02.663Z,95189.09
2022-12-11T01:51:31.048Z,95185.81
2022-12-11T01:54:00.899Z,95186.25
2022-12-11T01:56:31.950Z,95180.16
2022-12-11T01:59:07.048Z,95184.09
2022-12-11T02:01:38.614Z,95189.97
2022-12-11T02:04:08.080Z,95186.50
2022-12-11T02:06:38.390Z,95190.84
2022-12-11T02:09:07.764Z,95196.28
2022-12-11T02:11:41.167Z,95190.94
2022-12-11T02:14:17.456Z,95190.06
2022-12-11T02:16:48.201Z,95202.41
2022-12-11T02:19:23.347Z,95201.38
2022-12-11T02:21:54.425Z,95197.84
2022-12-11T02:24:32.134Z,95192.69
2022-12-11T02:27:29.999Z,95198.28
2022-12-11T02:30:03.532Z,95193.69
2022-12-11T02:32:36.451Z,95199.56
2022-12-11T02:35:10.521Z,95192.75
2022-12-11T02:37:41.169Z,95196.59
2022-12-11T02:40:12.312Z,95188.25
2022-12-11T02:42:42.169Z,95190.34
2022-12-11T02:45:12.983Z,95186.22
2022-12-11T02:47:41.194Z,95180.78
2022-12-11T02:50:12.530Z,95177.06
2022-12-11T02:52:42.865Z,95181.09
2022-12-11T02:55:13.595Z,95182.00
2022-12-11T02:57:45.741Z,95174.66
2022-12-11T03:00:16.712Z,95173.06
2022-12-11T03:02:45.365Z,95179.59
2022-12-11T03:05:14.346Z,95177.22
2022-12-11T03:07:46.107Z,95177.63
2022-12-11T03:10:16.432Z,95178.41
2022-12-11T03:12:48.115Z,95188.09
2022-12-11T03:15:23.175Z,95184.66
2022-12-11T03:17:59.204Z,95193.03
2022-12-11T03:20:34.808Z,95182.63
2022-12-11T03:23:07.011Z,95193.44
2022-12-11T03:25:37.693Z,95191.19
2022-12-11T03:28:11.204Z,95193.13
2022-12-11T03:30:41.523Z,95185.41
2022-12-11T03:33:11.827Z,95195.16
2022-12-11T03:35:42.036Z,95190.94
2022-12-11T03:38:13.777Z,95188.22
2022-12-11T03:40:44.423Z,95179.69
2022-12-11T03:43:12.595Z,95185.50
2022-12-11T03:45:42.643Z,95184.97
2022-12-11T03:48:11.469Z,95177.63
2022-12-11T03:50:39.716Z,95179.28
2022-12-11T03:53:08.306Z,95180.00
2022-12-11T03:55:37.775Z,95182.91
2022-12-11T03:58:05.695Z,95171.94
2022-12-11T04:00:33.690Z,95176.97
2022-12-11T04:03:15.126Z,95177.34
2022-12-11T04:05:43.815Z,95179.16
2022-12-11T04:08:11.895Z,95185.41
2022-12-11T04:10:40.150Z,95179.53
2022-12-11T04:13:08.666Z,95182.03
2022-12-11T04:15:35.713Z,95175.94
2022-12-11T04:18:22.520Z,95185.00
2022-12-11T04:21:07.644Z,95170.00
2022-12-11T04:24:07.446Z,95180.28
2022-12-11T04:26:35.366Z,95175.53
2022-12-11T04:29:03.275Z,95177.34
2022-12-11T04:31:31.281Z,95181.66
2022-12-11T04:34:00.606Z,95182.28
2022-12-11T04:36:28.594Z,95185.50
2022-12-11T04:38:56.558Z,95195.97
2022-12-11T04:41:24.444Z,95193.22
2022-12-11T04:43:52.412Z,95185.41
2022-12-11T04:46:22.570Z,95192.03
2022-12-11T04:48:56.844Z,95180.56
2022-12-11T04:51:27.108Z,95186.19
2022-12-11T04:53:55.518Z,95180.56
2022-12-11T04:56:23.505Z,95180.28
2022-12-11T04:58:51.412Z,95183.56
2022-12-11T05:01:22.285Z,95180.28
2022-12-11T05:03:50.338Z,95178.09
2022-12-11T05:06:18.270Z,95177.75
2022-12-11T05:08:47.572Z,95180.28
2022-12-11T05:11:16.824Z,95184.19
2022-12-11T05:13:45.425Z,95188.94
2022-12-11T05:16:15.794Z,95190.72
2022-12-11T05:18:44.357Z,95201.81
2022-12-11T05:21:15.063Z,95199.44
2022-12-11T05:23:43.634Z,95206.44
2022-12-11T05:26:15.783Z,95207.25
2022-12-11T05:28:44.454Z,95205.41
2022-12-11T05:31:15.984Z,95212.25
2022-12-11T05:33:44.153Z,95211.91
2022-12-11T05:36:15.187Z,95213.16
2022-12-11T05:38:43.092Z,95215.34
2022-12-11T05:41:16.756Z,95221.69
2022-12-11T05:43:44.731Z,95212.81
2022-12-11T05:46:14.971Z,95227.31
2022-12-11T05:48:43.669Z,95224.78
2022-12-11T05:51:12.206Z,95223.97
2022-12-11T05:53:41.581Z,95231.09
2022-12-11T05:56:12.690Z,95239.94
2022-12-11T05:58:43.185Z,95239.59
2022-12-11T06:01:12.748Z,95249.47
2022-12-11T06:03:40.697Z,95243.66
2022-12-11T06:06:09.156Z,95243.13
2022-12-11T06:08:37.240Z,95249.38
2022-12-11T06:11:05.401Z,95241.41
2022-12-11T06:13:33.623Z,95238.09
2022-12-11T06:16:04.200Z,95238.25
2022-12-11T06:18:32.743Z,95241.72
2022-12-11T06:21:00.575Z,95237.44
2022-12-11T06:23:28.483Z,95234.00
2022-12-11T06:25:56.351Z,95240.06
2022-12-11T06:28:24.177Z,95241.53
2022-12-11T06:30:52.601Z,95249.59
2022-12-11T06:33:21.806Z,95251.69
2022-12-11T06:35:49.641Z,95246.97
2022-12-11T06:38:17.512Z,95249.34
2022-12-11T06:40:45.471Z,95255.53
2022-12-11T06:43:13.307Z,95263.28
2022-12-11T06:45:41.226Z,95262.81
2022-12-11T06:48:09.745Z,95261.28
2022-12-11T06:50:40.497Z,95264.16
2022-12-11T06:53:08.437Z,95269.38
2022-12-11T06:55:36.713Z,95276.19
2022-12-11T06:58:04.913Z,95275.34
2022-12-11T07:00:32.906Z,95276.44
2022-12-11T07:03:00.729Z,95277.63
2022-12-11T07:05:28.644Z,95266.78
2022-12-11T07:07:58.009Z,95261.13
2022-12-11T07:10:27.295Z,95266.59
2022-12-11T07:12:55.280Z,95264.22
2022-12-11T07:15:23.199Z,95260.78
2022-12-11T07:17:51.083Z,95258.28
2022-12-11T07:20:19.147Z,95265.91
2022-12-11T07:22:47.090Z,95265.09
2022-12-11T07:25:16.578Z,95270.84
2022-12-11T07:27:44.771Z,95281.94
2022-12-11T07:30:14.133Z,95278.25
2022-12-11T07:32:42.118Z,95286.50
2022-12-11T07:35:10.829Z,95284.00
2022-12-11T07:37:41.595Z,95276.69
2022-12-11T07:40:10.976Z,95287.88
2022-12-11T07:42:45.790Z,95289.41
2022-12-11T07:45:14.417Z,95287.34
2022-12-11T07:47:42.868Z,95284.25
2022-12-11T07:50:11.073Z,95286.66
2022-12-11T07:52:38.991Z,95284.84
2022-12-11T07:55:07.438Z,95281.31
2022-12-11T07:57:35.380Z,95283.78
2022-12-11T08:00:06.048Z,95282.94
2022-12-11T08:02:37.202Z,95281.78
2022-12-11T08:05:06.154Z,95269.53
2022-12-11T08:07:35.548Z,95287.16
2022-12-11T08:10:03.546Z,95290.69
2022-12-11T08:12:31.591Z,95286.97
2022-12-11T08:14:59.753Z,95286.13
2022-12-11T08:17:32.799Z,95284.09
2022-12-11T08:20:03.161Z,95287.47
2022-12-11T08:22:31.055Z,95296.84
2022-12-11T08:24:59.359Z,95286.16
2022-12-11T08:27:27.462Z,95303.19
2022-12-11T08:29:55.353Z,95294.75
2022-12-11T08:32:23.265Z,95299.22
2022-12-11T08:34:53.564Z,95298.31
2022-12-11T08:37:21.457Z,95304.75
2022-12-11T08:39:49.366Z,95300.00
2022-12-11T08:42:17.268Z,95305.09
2022-12-11T08:44:46.084Z,95304.38
2022-12-11T08:47:15.401Z,95304.03
2022-12-11T08:49:43.347Z,95306.88
2022-12-11T08:52:12.617Z,95306.13
2022-12-11T08:54:40.548Z,95312.91
2022-12-11T08:57:08.480Z,95309.28
2022-12-11T08:59:36.457Z,95310.97
2022-12-11T09:02:04.372Z,95310.91
2022-12-11T09:04:32.300Z,95316.41
2022-12-11T09:07:00.216Z,95308.88
2022-12-11T09:09:29.467Z,95304.88
2022-12-11T09:11:57.633Z,95301.03
2022-12-11T09:14:25.555Z,95310.00
2022-12-11T09:16:53.422Z,95306.63
2022-12-11T09:19:21.319Z,95302.09
2022-12-11T09:21:49.289Z,95291.47
2022-12-11T09:24:17.299Z,95297.06
2022-12-11T09:26:47.250Z,95304.72
2022-12-11T09:29:15.224Z,95300.22
2022-12-11T09:31:43.271Z,95301.25
2022-12-11T09:34:13.986Z,95289.97
2022-12-11T09:36:42.691Z,95286.38
2022-12-11T09:39:12.550Z,95292.47
2022-12-11T09:41:41.731Z,95287.97
2022-12-11T09:44:31.547Z,95291.19
2022-12-11T09:46:59.976Z,95285.34
2022-12-11T09:49:32.948Z,95286.75
2022-12-11T09:52:06.340Z,95282.56
2022-12-11T09:54:34.553Z,95280.84
2022-12-11T09:57:11.331Z,95277.25
2022-12-11T09:59:48.665Z,95282.78
2022-12-11T10:02:25.968Z,95287.59
2022-12-11T10:05:02.769Z,95285.88
2022-12-11T10:07:36.232Z,95274.94
2022-12-11T10:10:10.421Z,95271.25
2022-12-11T10:12:43.553Z,95266.94
2022-12-11T10:15:33.286Z,95270.78
2022-12-11T10:18:05.110Z,95269.53
2022-12-11T10:20:36.536Z,95265.84
2022-12-11T10:23:07.744Z,95271.56
2022-12-11T10:25:38.408Z,95266.72
2022-12-11T10:28:13.389Z,95261.16
2022-12-11T10:30:48.156Z,95268.63
2022-12-11T10:33:21.523Z,95276.94
2022-12-11T10:35:51.785Z,95266.94
2022-12-11T10:38:24.847Z,95263.19
2022-12-11T10:40:55.514Z,95268.88
2022-12-11T10:43:34.048Z,95267.63
2022-12-11T10:46:03.668Z,95264.44
2022-12-11T10:48:31.569Z,95261.31
2022-12-11T10:51:02.297Z,95265.03
2022-12-11T10:53:30.884Z,95256.75
2022-12-11T10:55:59.893Z,95262.09
2022-12-11T10:58:31.862Z,95261.63
2022-12-11T11:01:06.533Z,95264.22
2022-12-11T11:03:35.670Z,95260.06
2022-12-11T11:06:05.519Z,95248.78
2022-12-11T11:08:40.708Z,95249.34
2022-12-11T11:11:22.472Z,95248.44
2022-12-11T11:13:50.595Z,95241.97
2022-12-11T11:16:21.948Z,95241.28
2022-12-11T11:18:55.307Z,95240.09
2022-12-11T11:21:25.563Z,95220.38
2022-12-11T11:23:54.643Z,95231.63
2022-12-11T11:26:23.642Z,95233.72
2022-12-11T11:28:54.111Z,95227.50
2022-12-11T11:31:33.197Z,95227.81
2022-12-11T11:34:04.090Z,95222.16
2022-12-11T11:36:34.475Z,95222.09
2022-12-11T11:39:18.132Z,95220.09
2022-12-11T11:41:51.855Z,95215.41
2022-12-11T11:44:24.851Z,95216.63
2022-12-11T11:46:59.539Z,95209.88
2022-12-11T11:49:37.356Z,95211.03
2022-12-11T11:52:13.591Z,95206.09
2022-12-11T11:54:45.056Z,95201.81
2022-12-11T11:57:16.053Z,95204.03
2022-12-11T11:59:47.588Z,95202.59
2022-12-11T12:02:18.737Z,95209.34
2022-12-11T12:04:51.228Z,95206.53
2022-12-11T12:07:28.842Z,95195.38
2022-12-11T12:10:00.258Z,95201.69
2022-12-11T12:12:35.884Z,95202.31
2022-12-11T12:15:18.378Z,95201.31
2022-12-11T12:17:55.708Z,95199.81
2022-12-11T12:20:31.017Z,95199.53
2022-12-11T12:23:04.307Z,95205.31
2022-12-11T12:25:36.894Z,95209.31
2022-12-11T12:28:14.449Z,95196.25
2022-12-11T12:30:52.187Z,95198.13
2022-12-11T12:33:28.642Z,95197.50
2022-12-11T12:36:07.210Z,95194.59
2022-12-11T12:38:42.641Z,95194.53
2022-12-11T12:41:15.671Z,95206.38
2022-12-11T12:43:58.545Z,95204.13
2022-12-11T12:46:35.973Z,95195.31
2022-12-11T12:49:05.881Z,95197.69
2022-12-11T12:51:33.919Z,95203.41
2022-12-11T12:54:09.086Z,95209.72
2022-12-11T12:56:43.665Z,95217.50
2022-12-11T12:59:21.029Z,95214.03
2022-12-11T13:01:52.313Z,95221.00
2022-12-11T13:04:55.159Z,95214.50
2022-12-11T13:07:27.273Z,95217.91
2022-12-11T13:10:04.489Z,95218.34
2022-12-11T13:12:35.280Z,95219.53
2022-12-11T13:15:03.198Z,95226.94
2022-12-11T13:17:38.660Z,95219.56
2022-12-11T13:20:16.208Z,95224.50
2022-12-11T13:22:57.827Z,95219.09
2022-12-11T13:25:29.569Z,95219.88
2022-12-11T13:28:06.728Z,95232.63
2022-12-11T13:30:35.457Z,95217.88
2022-12-11T13:33:06.508Z,95224.22
2022-12-11T13:35:36.527Z,95223.41
2022-12-11T13:38:14.008Z,95225.88
2022-12-11T13:40:43.432Z,95226.22
2022-12-11T13:43:19.743Z,95229.13
2022-12-11T13:45:50.769Z,95219.56
2022-12-11T13:48:24.952Z,95218.63
2022-12-11T13:50:55.019Z,95220.47
2022-12-11T13:53:23.645Z,95222.97
2022-12-11T13:55:59.230Z,95222.25
2022-12-11T13:58:27.794Z,95221.84
2022-12-11T14:01:07.657Z,95230.47
2022-12-11T14:03:36.295Z,95229.47
2022-12-11T14:06:06.039Z,95227.66
2022-12-11T14:08:36.172Z,95228.03
2022-12-11T14:11:04.380Z,95223.25
2022-12-11T14:13:34.514Z,95226.84
2022-12-11T14:16:03.070Z,95230.28
2022-12-11T14:18:33.130Z,95232.66
2022-12-11T14:21:03.298Z,95229.69
2022-12-11T14:23:33.789Z,95239.50
2022-12-11T14:26:03.281Z,95241.38
2022-12-11T14:28:38.447Z,95238.97
2022-12-11T14:31:07.076Z,95240.31
2022-12-11T14:33:38.067Z,95245.56
2022-12-11T14:36:07.414Z,95241.38
2022-12-11T14:38:39.579Z,95241.59
2022-12-11T14:41:13.808Z,95249.75
2022-12-11T14:43:45.488Z,95251.75
2022-12-11T14:46:18.364Z,95243.13
2022-12-11T14:48:49.467Z,95249.88
2022-12-11T14:51:19.283Z,95252.06
2022-12-11T14:53:50.601Z,95251.03
2022-12-11T14:56:21.166Z,95249.84
2022-12-11T14:58:54.654Z,95255.09
2022-12-11T15:01:24.641Z,95253.34
2022-12-11T15:04:04.204Z,95257.78
2022-12-11T15:06:33.743Z,95259.50
2022-12-11T15:09:18.822Z,95255.56
2022-12-11T15:11:47.257Z,95254.53
2022-12-11T15:14:15.508Z,95253.72
2022-12-11T15:16:43.719Z,95265.31
2022-12-11T15:19:20.788Z,95258.69
2022-12-11T15:21:48.863Z,95262.97
2022-12-11T15:24:27.562Z,95254.25
2022-12-11T15:26:59.169Z,95261.97
2022-12-11T15:29:32.246Z,95266.06
2022-12-11T15:32:01.507Z,95258.63
2022-12-11T15:34:34.791Z,95262.88
2022-12-11T15:37:03.029Z,95269.91
2022-12-11T15:39:32.344Z,95266.63
2022-12-11T15:42:08.276Z,95267.22
2022-12-11T15:44:36.188Z,95268.22
2022-12-11T15:47:13.264Z,95275.09
2022-12-11T15:49:41.159Z,95267.78
2022-12-11T15:52:09.355Z,95276.59
2022-12-11T15:54:38.676Z,95279.41
2022-12-11T15:57:10.973Z,95271.03
2022-12-11T15:59:38.938Z,95273.34
2022-12-11T16:02:12.074Z,95271.97
2022-12-11T16:04:40.104Z,95278.44
2022-12-11T16:07:14.546Z,95271.25
2022-12-11T16:09:43.884Z,95272.38
2022-12-11T16:12:12.101Z,95278.34
2022-12-11T16:14:40.108Z,95270.50
2022-12-11T16:17:08.569Z,95278.03
2022-12-11T16:19:37.611Z,95281.44
2022-12-11T16:22:06.053Z,95281.16
2022-12-11T16:24:34.513Z,95279.53
2022-12-11T16:27:04.308Z,95279.34
2022-12-11T16:29:34.915Z,95286.59
2022-12-11T16:32:02.828Z,95286.72
2022-12-11T16:34:30.735Z,95289.22
2022-12-11T16:36:59.482Z,95289.94
2022-12-11T16:39:27.877Z,95282.38
2022-12-11T16:41:55.801Z,95286.47
2022-12-11T16:44:26.748Z,95282.91
2022-12-11T16:46:55.276Z,95284.34
2022-12-11T16:49:23.763Z,95291.84
2022-12-11T16:51:51.697Z,95287.97
2022-12-11T16:54:19.875Z,95282.53
2022-12-11T16:56:48.377Z,95282.41
2022-12-11T16:59:16.409Z,95285.31
2022-12-11T17:01:46.026Z,95273.34
2022-12-11T17:04:13.990Z,95280.41
2022-12-11T17:06:41.869Z,95273.66
2022-12-11T17:09:10.421Z,95270.50
2022-12-11T17:11:38.385Z,95277.03
2022-12-11T17:14:06.379Z,95276.97
2022-12-11T17:16:34.370Z,95277.25
2022-12-11T17:19:05.316Z,95278.97
2022-12-11T17:21:33.192Z,95268.78
2022-12-11T17:24:01.436Z,95284.91
2022-12-11T17:26:29.626Z,95285.13
2022-12-11T17:28:57.732Z,95277.56
2022-12-11T17:31:25.820Z,95281.75
2022-12-11T17:33:53.984Z,95276.09
2022-12-11T17:36:23.493Z,95280.22
2022-12-11T17:38:51.423Z,95288.66
2022-12-11T17:41:21.165Z,95280.22
2022-12-11T17:43:49.601Z,95288.19
2022-12-11T17:46:18.147Z,95274.84
2022-12-11T17:48:46.221Z,95284.66
2022-12-11T17:51:21.035Z,95289.88
2022-12-11T17:53:50.753Z,95283.19
2022-12-11T17:56:19.048Z,95291.63
2022-12-11T17:58:46.986Z,95278.28
2022-12-11T18:01:15.079Z,95289.97
2022-12-11T18:03:43.237Z,95295.09
2022-12-11T18:06:14.361Z,95296.09
2022-12-11T18:08:42.483Z,95296.94
2022-12-11T18:11:13.968Z,95294.72
2022-12-11T18:13:42.111Z,95288.41
2022-12-11T18:16:12.120Z,95293.75
2022-12-11T18:18:40.603Z,95294.38
2022-12-11T18:21:08.560Z,95302.28
2022-12-11T18:23:36.504Z,95300.00
2022-12-11T18:26:04.573Z,95306.13
2022-12-11T18:28:33.854Z,95295.38
2022-12-11T18:31:02.385Z,95293.00
2022-12-11T18:33:31.212Z,95293.75
2022-12-11T18:35:59.164Z,95294.56
2022-12-11T18:38:27.220Z,95296.47
2022-12-11T18:40:55.091Z,95284.00
2022-12-11T18:43:23.007Z,95297.03
2022-12-11T18:45:52.297Z,95295.59
2022-12-11T18:48:20.185Z,95304.53
2022-12-11T18:50:48.995Z,95293.97
2022-12-11T18:53:17.976Z,95301.03
2022-12-11T18:55:47.695Z,95303.56
2022-12-11T18:58:17.454Z,95301.47
2022-12-11T19:00:46.128Z,95298.00
2022-12-11T19:03:15.539Z,95304.44
2022-12-11T19:05:43.984Z,95310.28
2022-12-11T19:08:13.941Z,95304.66
2022-12-11T19:10:43.521Z,95306.38
2022-12-11T19:13:11.712Z,95309.84
2022-12-11T19:15:41.855Z,95309.84
2022-12-11T19:18:10.044Z,95304.66
2022-12-11T19:20:49.777Z,95298.91
2022-12-11T19:23:20.950Z,95315.78
2022-12-11T19:25:49.291Z,95306.72
2022-12-11T19:28:17.835Z,95304.84
2022-12-11T19:30:46.177Z,95313.31
2022-12-11T19:33:14.175Z,95306.38
2022-12-11T19:35:43.944Z,95308.06
2022-12-11T19:38:12.748Z,95311.50
2022-12-11T19:40:42.278Z,95319.13
2022-12-11T19:43:10.367Z,95305.69
2022-12-11T19:45:38.532Z,95313.38
2022-12-11T19:48:06.918Z,95305.88
2022-12-11T19:50:36.363Z,95303.09
2022-12-11T19:53:05.694Z,95309.31
2022-12-11T19:55:33.964Z,95307.34
2022-12-11T19:58:01.881Z,95309.13
2022-12-11T20:00:29.819Z,95301.63
2022-12-11T20:02:57.836Z,95304.09
2022-12-11T20:05:25.707Z,95298.28
2022-12-11T20:07:53.659Z,95298.75
2022-12-11T20:10:22.993Z,95306.97
2022-12-11T20:12:52.526Z,95301.06
2022-12-11T20:15:20.541Z,95303.63
2022-12-11T20:17:48.462Z,95296.00
2022-12-11T20:20:16.372Z,95299.31
2022-12-11T20:22:44.292Z,95291.97
2022-12-11T20:25:12.619Z,95289.88
2022-12-11T20:27:42.147Z,95294.94
2022-12-11T20:30:11.137Z,95297.06
2022-12-11T20:32:39.239Z,95296.97
2022-12-11T20:35:08.469Z,95296.97
2022-12-11T20:37:36.604Z,95290.31
2022-12-11T20:40:05.448Z,95295.69
2022-12-11T20:42:33.766Z,95294.13
2022-12-11T20:45:03.098Z,95287.72
2022-12-11T20:47:31.010Z,95286.41
2022-12-11T20:49:59.090Z,95300.13
2022-12-11T20:52:28.078Z,95288.03
2022-12-11T20:54:55.966Z,95291.41
2022-12-11T20:57:23.967Z,95288.91
2022-12-11T20:59:51.896Z,95287.63
2022-12-11T21:02:21.248Z,95289.50
2022-12-11T21:04:49.220Z,95288.47
2022-12-11T21:07:17.269Z,95282.72
2022-12-11T21:09:45.158Z,95283.94
2022-12-11T21:12:13.054Z,95288.63
2022-12-11T21:14:41.062Z,95293.50
2022-12-11T21:17:09.088Z,95292.44
2022-12-11T21:19:38.368Z,95287.72
2022-12-11T21:22:06.734Z,95292.16
2022-12-11T21:24:34.703Z,95286.66
2022-12-11T21:27:02.576Z,95292.78
2022-12-11T21:29:30.505Z,95286.97
2022-12-11T21:31:59.140Z,95286.97
2022-12-11T21:34:27.541Z,95287.94
2022-12-11T21:36:57.472Z,95288.72
2022-12-11T21:39:26.103Z,95287.94
2022-12-11T21:41:54.007Z,95285.59
2022-12-11T21:47:09.850Z,95288.16
2022-12-11T21:49:38.391Z,95283.97
2022-12-11T21:52:08.425Z,95289.66
2022-12-11T21:54:36.333Z,95292.91
2022-12-11T21:57:04.821Z,95290.66
2022-12-11T21:59:33.007Z,95291.31
2022-12-11T22:02:01.177Z,95284.50
2022-12-11T22:04:29.155Z,95290.03
2022-12-11T22:06:57.092Z,95287.53
2022-12-11T22:09:26.795Z,95286.38
2022-12-11T22:11:58.324Z,95282.06
2022-12-11T22:14:26.825Z,95284.34
2022-12-11T22:16:54.752Z,95290.84
2022-12-11T22:19:23.990Z,95289.41
2022-12-11T22:21:54.517Z,95288.84
2022-12-11T22:24:22.433Z,95287.75
2022-12-11T22:26:51.709Z,95303.16
2022-12-11T22:29:19.579Z,95299.59
2022-12-11T22:31:47.583Z,95296.22
2022-12-11T22:34:15.605Z,95297.06
2022-12-11T22:36:43.485Z,95294.69
2022-12-11T22:39:11.367Z,95297.38
2022-12-11T22:41:42.235Z,95295.13
2022-12-11T22:44:15.070Z,95300.31
2022-12-11T22:46:49.492Z,95300.22
2022-12-11T22:49:18.355Z,95303.94
2022-12-11T22:51:46.252Z,95308.06
2022-12-11T22:54:14.161Z,95310.94
2022-12-11T22:56:42.092Z,95298.44
2022-12-11T22:59:10.069Z,95305.75
2022-12-11T23:01:39.341Z,95298.91
2022-12-11T23:04:07.283Z,95296.66
2022-12-11T23:06:35.419Z,95299.56
2022-12-11T23:09:04.006Z,95298.94
2022-12-11T23:11:36.289Z,95299.59
2022-12-11T23:14:04.608Z,95300.59
2022-12-11T23:16:32.618Z,95302.41
2022-12-11T23:19:01.992Z,95301.63
2022-12-11T23:21:30.075Z,95297.84
2022-12-11T23:24:00.390Z,95292.09
2022-12-11T23:26:29.644Z,95301.41
2022-12-11T23:28:58.659Z,95304.94
2022-12-11T23:31:27.260Z,95304.00
2022-12-11T23:33:55.450Z,95304.31
2022-12-11T23:36:25.320Z,95304.88
2022-12-11T23:38:55.014Z,95308.94
2022-12-11T23:41:23.755Z,95313.28
2022-12-11T23:43:51.673Z,95320.91
2022-12-11T23:46:21.139Z,95318.31
2022-12-11T23:48:49.460Z,95317.66
2022-12-11T23:51:19.028Z,95321.63
2022-12-11T23:53:48.316Z,95320.84
2022-12-11T23:56:18.350Z,95310.94
2022-12-11T23:58:46.472Z,95312.81
